sensor_id;sensor_type;location;lat;lon;timestamp;temperature;humidity
79439;DHT22;68889;48.232;10.110;2023-04-24T00:01:39;10.00;92.40
79439;DHT22;68889;48.232;10.110;2023-04-24T00:04:06;10.00;92.10
79439;DHT22;68889;48.232;10.110;2023-04-24T00:06:32;10.00;92.30
79439;DHT22;68889;48.232;10.110;2023-04-24T00:09:05;10.00;92.40
79439;DHT22;68889;48.232;10.110;2023-04-24T00:11:31;10.00;92.50
79439;DHT22;68889;48.232;10.110;2023-04-24T00:13:56;10.00;92.10
79439;DHT22;68889;48.232;10.110;2023-04-24T00:16:23;10.00;92.00
79439;DHT22;68889;48.232;10.110;2023-04-24T00:18:48;10.00;91.80
79439;DHT22;68889;48.232;10.110;2023-04-24T00:21:15;10.00;91.60
79439;DHT22;68889;48.232;10.110;2023-04-24T00:23:43;10.00;91.40
79439;DHT22;68889;48.232;10.110;2023-04-24T00:26:09;10.00;91.70
79439;DHT22;68889;48.232;10.110;2023-04-24T00:28:34;10.00;91.70
79439;DHT22;68889;48.232;10.110;2023-04-24T00:31:00;10.00;91.70
79439;DHT22;68889;48.232;10.110;2023-04-24T00:33:26;10.00;91.40
79439;DHT22;68889;48.232;10.110;2023-04-24T00:35:51;9.90;91.40
79439;DHT22;68889;48.232;10.110;2023-04-24T00:38:17;10.00;91.60
79439;DHT22;68889;48.232;10.110;2023-04-24T00:40:43;9.90;91.30
79439;DHT22;68889;48.232;10.110;2023-04-24T00:43:08;9.90;91.60
79439;DHT22;68889;48.232;10.110;2023-04-24T00:45:34;9.90;91.70
79439;DHT22;68889;48.232;10.110;2023-04-24T00:48:00;9.90;91.60
79439;DHT22;68889;48.232;10.110;2023-04-24T00:50:26;9.90;91.70
79439;DHT22;68889;48.232;10.110;2023-04-24T00:52:52;9.90;91.70
79439;DHT22;68889;48.232;10.110;2023-04-24T00:55:18;9.90;91.40
79439;DHT22;68889;48.232;10.110;2023-04-24T00:57:44;9.90;91.80
79439;DHT22;68889;48.232;10.110;2023-04-24T01:00:11;9.90;91.80
79439;DHT22;68889;48.232;10.110;2023-04-24T01:02:40;9.90;91.70
79439;DHT22;68889;48.232;10.110;2023-04-24T01:05:09;9.90;91.60
79439;DHT22;68889;48.232;10.110;2023-04-24T01:07:35;9.80;91.80
79439;DHT22;68889;48.232;10.110;2023-04-24T01:10:01;9.90;91.30
79439;DHT22;68889;48.232;10.110;2023-04-24T01:12:27;9.90;91.30
79439;DHT22;68889;48.232;10.110;2023-04-24T01:14:53;9.90;91.20
79439;DHT22;68889;48.232;10.110;2023-04-24T01:17:19;9.80;91.60
79439;DHT22;68889;48.232;10.110;2023-04-24T01:19:45;9.80;91.40
79439;DHT22;68889;48.232;10.110;2023-04-24T01:22:13;9.80;91.50
79439;DHT22;68889;48.232;10.110;2023-04-24T01:24:39;9.80;91.10
79439;DHT22;68889;48.232;10.110;2023-04-24T01:27:05;9.80;91.20
79439;DHT22;68889;48.232;10.110;2023-04-24T01:29:31;9.70;91.60
79439;DHT22;68889;48.232;10.110;2023-04-24T01:31:57;9.70;91.20
79439;DHT22;68889;48.232;10.110;2023-04-24T01:34:23;9.70;91.50
79439;DHT22;68889;48.232;10.110;2023-04-24T01:36:49;9.70;91.50
79439;DHT22;68889;48.232;10.110;2023-04-24T01:39:15;9.70;91.20
79439;DHT22;68889;48.232;10.110;2023-04-24T01:41:42;9.70;90.90
79439;DHT22;68889;48.232;10.110;2023-04-24T01:44:07;9.70;91.50
79439;DHT22;68889;48.232;10.110;2023-04-24T01:46:33;9.70;91.40
79439;DHT22;68889;48.232;10.110;2023-04-24T01:49:01;9.70;91.50
79439;DHT22;68889;48.232;10.110;2023-04-24T01:51:27;9.70;91.50
79439;DHT22;68889;48.232;10.110;2023-04-24T01:53:53;9.70;91.30
79439;DHT22;68889;48.232;10.110;2023-04-24T01:56:20;9.70;91.40
79439;DHT22;68889;48.232;10.110;2023-04-24T01:58:46;9.70;91.50
79439;DHT22;68889;48.232;10.110;2023-04-24T02:01:18;9.70;91.70
79439;DHT22;68889;48.232;10.110;2023-04-24T02:03:44;9.70;91.60
79439;DHT22;68889;48.232;10.110;2023-04-24T02:06:10;9.60;91.80
79439;DHT22;68889;48.232;10.110;2023-04-24T02:08:35;9.60;91.70
79439;DHT22;68889;48.232;10.110;2023-04-24T02:11:01;9.60;91.70
79439;DHT22;68889;48.232;10.110;2023-04-24T02:13:28;9.60;91.80
79439;DHT22;68889;48.232;10.110;2023-04-24T02:15:53;9.60;91.90
79439;DHT22;68889;48.232;10.110;2023-04-24T02:18:19;9.60;91.90
79439;DHT22;68889;48.232;10.110;2023-04-24T02:20:45;9.60;91.50
79439;DHT22;68889;48.232;10.110;2023-04-24T02:23:10;9.60;91.80
79439;DHT22;68889;48.232;10.110;2023-04-24T02:25:36;9.60;91.80
79439;DHT22;68889;48.232;10.110;2023-04-24T02:28:02;9.60;91.60
79439;DHT22;68889;48.232;10.110;2023-04-24T02:30:28;9.60;91.80
79439;DHT22;68889;48.232;10.110;2023-04-24T02:32:53;9.60;91.70
79439;DHT22;68889;48.232;10.110;2023-04-24T02:35:19;9.60;91.50
79439;DHT22;68889;48.232;10.110;2023-04-24T02:37:45;9.70;91.50
79439;DHT22;68889;48.232;10.110;2023-04-24T02:40:11;9.60;91.60
79439;DHT22;68889;48.232;10.110;2023-04-24T02:42:36;9.60;91.80
79439;DHT22;68889;48.232;10.110;2023-04-24T02:45:02;9.60;91.80
79439;DHT22;68889;48.232;10.110;2023-04-24T02:47:28;9.60;91.70
79439;DHT22;68889;48.232;10.110;2023-04-24T02:49:53;9.60;91.70
79439;DHT22;68889;48.232;10.110;2023-04-24T02:52:19;9.60;91.80
79439;DHT22;68889;48.232;10.110;2023-04-24T02:54:44;9.60;92.00
79439;DHT22;68889;48.232;10.110;2023-04-24T02:57:10;9.60;91.70
79439;DHT22;68889;48.232;10.110;2023-04-24T02:59:35;9.60;91.80
79439;DHT22;68889;48.232;10.110;2023-04-24T03:02:01;9.60;91.80
79439;DHT22;68889;48.232;10.110;2023-04-24T03:04:26;9.50;92.20
79439;DHT22;68889;48.232;10.110;2023-04-24T03:06:52;9.60;91.90
79439;DHT22;68889;48.232;10.110;2023-04-24T03:09:20;9.50;91.90
79439;DHT22;68889;48.232;10.110;2023-04-24T03:11:45;9.50;92.00
79439;DHT22;68889;48.232;10.110;2023-04-24T03:14:11;9.50;92.20
79439;DHT22;68889;48.232;10.110;2023-04-24T03:16:37;9.50;92.20
79439;DHT22;68889;48.232;10.110;2023-04-24T03:19:02;9.50;92.40
79439;DHT22;68889;48.232;10.110;2023-04-24T03:21:28;9.50;92.20
79439;DHT22;68889;48.232;10.110;2023-04-24T03:23:53;9.50;92.00
79439;DHT22;68889;48.232;10.110;2023-04-24T03:26:19;9.50;91.80
79439;DHT22;68889;48.232;10.110;2023-04-24T03:28:45;9.50;91.40
79439;DHT22;68889;48.232;10.110;2023-04-24T03:31:10;9.50;91.50
79439;DHT22;68889;48.232;10.110;2023-04-24T03:33:36;9.40;91.60
79439;DHT22;68889;48.232;10.110;2023-04-24T03:36:02;9.40;91.70
79439;DHT22;68889;48.232;10.110;2023-04-24T03:38:27;9.40;91.40
79439;DHT22;68889;48.232;10.110;2023-04-24T03:40:53;9.40;91.30
79439;DHT22;68889;48.232;10.110;2023-04-24T03:43:18;9.40;91.20
79439;DHT22;68889;48.232;10.110;2023-04-24T03:45:44;9.40;91.10
79439;DHT22;68889;48.232;10.110;2023-04-24T03:48:09;9.50;90.90
79439;DHT22;68889;48.232;10.110;2023-04-24T03:50:35;9.40;90.90
79439;DHT22;68889;48.232;10.110;2023-04-24T03:53:00;9.40;91.40
79439;DHT22;68889;48.232;10.110;2023-04-24T03:55:26;9.40;91.40
79439;DHT22;68889;48.232;10.110;2023-04-24T03:57:51;9.40;91.60
79439;DHT22;68889;48.232;10.110;2023-04-24T04:00:17;9.40;91.50
79439;DHT22;68889;48.232;10.110;2023-04-24T04:02:43;9.40;91.00
79439;DHT22;68889;48.232;10.110;2023-04-24T04:05:09;9.40;90.90
79439;DHT22;68889;48.232;10.110;2023-04-24T04:07:35;9.40;91.30
79439;DHT22;68889;48.232;10.110;2023-04-24T04:10:00;9.40;90.60
79439;DHT22;68889;48.232;10.110;2023-04-24T04:12:26;9.40;90.90
79439;DHT22;68889;48.232;10.110;2023-04-24T04:14:52;9.40;91.00
79439;DHT22;68889;48.232;10.110;2023-04-24T04:17:23;9.40;90.60
79439;DHT22;68889;48.232;10.110;2023-04-24T04:19:55;9.40;90.60
79439;DHT22;68889;48.232;10.110;2023-04-24T04:22:21;9.40;90.30
79439;DHT22;68889;48.232;10.110;2023-04-24T04:24:47;9.30;90.80
79439;DHT22;68889;48.232;10.110;2023-04-24T04:27:12;9.40;90.40
79439;DHT22;68889;48.232;10.110;2023-04-24T04:29:38;9.30;90.40
79439;DHT22;68889;48.232;10.110;2023-04-24T04:32:03;9.30;90.10
79439;DHT22;68889;48.232;10.110;2023-04-24T04:34:29;9.20;90.30
79439;DHT22;68889;48.232;10.110;2023-04-24T04:36:55;9.20;90.30
79439;DHT22;68889;48.232;10.110;2023-04-24T04:39:20;9.20;90.00
79439;DHT22;68889;48.232;10.110;2023-04-24T04:41:46;9.20;89.80
79439;DHT22;68889;48.232;10.110;2023-04-24T04:44:14;9.20;90.10
79439;DHT22;68889;48.232;10.110;2023-04-24T04:46:40;9.20;89.90
79439;DHT22;68889;48.232;10.110;2023-04-24T04:49:07;9.20;90.20
79439;DHT22;68889;48.232;10.110;2023-04-24T04:51:34;9.20;90.50
79439;DHT22;68889;48.232;10.110;2023-04-24T04:53:59;9.20;90.20
79439;DHT22;68889;48.232;10.110;2023-04-24T04:56:25;9.20;90.40
79439;DHT22;68889;48.232;10.110;2023-04-24T04:58:51;9.20;89.90
79439;DHT22;68889;48.232;10.110;2023-04-24T05:01:16;9.30;89.80
79439;DHT22;68889;48.232;10.110;2023-04-24T05:03:42;9.30;89.40
79439;DHT22;68889;48.232;10.110;2023-04-24T05:06:08;9.30;89.40
79439;DHT22;68889;48.232;10.110;2023-04-24T05:08:33;9.30;89.20
79439;DHT22;68889;48.232;10.110;2023-04-24T05:10:59;9.30;88.90
79439;DHT22;68889;48.232;10.110;2023-04-24T05:13:25;9.30;88.90
79439;DHT22;68889;48.232;10.110;2023-04-24T05:15:51;9.40;89.10
79439;DHT22;68889;48.232;10.110;2023-04-24T05:18:16;9.40;89.50
79439;DHT22;68889;48.232;10.110;2023-04-24T05:20:42;9.30;89.50
79439;DHT22;68889;48.232;10.110;2023-04-24T05:23:09;9.40;89.00
79439;DHT22;68889;48.232;10.110;2023-04-24T05:25:35;9.40;88.60
79439;DHT22;68889;48.232;10.110;2023-04-24T05:28:01;9.40;88.90
79439;DHT22;68889;48.232;10.110;2023-04-24T05:30:27;9.50;89.00
79439;DHT22;68889;48.232;10.110;2023-04-24T05:32:53;9.40;88.90
79439;DHT22;68889;48.232;10.110;2023-04-24T05:35:18;9.50;88.00
79439;DHT22;68889;48.232;10.110;2023-04-24T05:37:44;9.50;89.00
79439;DHT22;68889;48.232;10.110;2023-04-24T05:40:10;9.50;88.40
79439;DHT22;68889;48.232;10.110;2023-04-24T05:42:36;9.50;88.60
79439;DHT22;68889;48.232;10.110;2023-04-24T05:45:02;9.50;88.70
79439;DHT22;68889;48.232;10.110;2023-04-24T05:47:28;9.60;88.40
79439;DHT22;68889;48.232;10.110;2023-04-24T05:49:53;9.60;88.80
79439;DHT22;68889;48.232;10.110;2023-04-24T05:52:19;9.60;88.50
79439;DHT22;68889;48.232;10.110;2023-04-24T05:54:45;9.60;88.50
79439;DHT22;68889;48.232;10.110;2023-04-24T05:57:10;9.70;87.80
79439;DHT22;68889;48.232;10.110;2023-04-24T05:59:37;9.70;87.30
79439;DHT22;68889;48.232;10.110;2023-04-24T06:02:06;9.70;87.40
79439;DHT22;68889;48.232;10.110;2023-04-24T06:04:32;9.70;87.60
79439;DHT22;68889;48.232;10.110;2023-04-24T06:06:58;9.70;87.40
79439;DHT22;68889;48.232;10.110;2023-04-24T06:09:25;9.80;87.00
79439;DHT22;68889;48.232;10.110;2023-04-24T06:11:51;9.70;86.90
79439;DHT22;68889;48.232;10.110;2023-04-24T06:14:18;9.80;86.80
79439;DHT22;68889;48.232;10.110;2023-04-24T06:16:44;9.80;86.20
79439;DHT22;68889;48.232;10.110;2023-04-24T06:19:10;9.90;86.00
79439;DHT22;68889;48.232;10.110;2023-04-24T06:21:35;9.80;85.90
79439;DHT22;68889;48.232;10.110;2023-04-24T06:24:01;9.70;86.30
79439;DHT22;68889;48.232;10.110;2023-04-24T06:26:27;9.70;86.60
79439;DHT22;68889;48.232;10.110;2023-04-24T06:28:53;9.70;86.30
79439;DHT22;68889;48.232;10.110;2023-04-24T06:31:23;9.70;87.30
79439;DHT22;68889;48.232;10.110;2023-04-24T06:33:49;9.60;87.40
79439;DHT22;68889;48.232;10.110;2023-04-24T06:36:15;9.50;85.70
79439;DHT22;68889;48.232;10.110;2023-04-24T06:38:41;9.30;86.70
79439;DHT22;68889;48.232;10.110;2023-04-24T06:41:06;9.10;87.10
79439;DHT22;68889;48.232;10.110;2023-04-24T06:43:33;8.90;87.80
79439;DHT22;68889;48.232;10.110;2023-04-24T06:46:00;8.80;87.20
79439;DHT22;68889;48.232;10.110;2023-04-24T06:48:25;8.70;87.90
79439;DHT22;68889;48.232;10.110;2023-04-24T06:50:51;8.60;89.30
79439;DHT22;68889;48.232;10.110;2023-04-24T06:53:17;8.60;88.20
79439;DHT22;68889;48.232;10.110;2023-04-24T06:55:43;8.50;89.70
79439;DHT22;68889;48.232;10.110;2023-04-24T06:58:10;8.40;89.60
79439;DHT22;68889;48.232;10.110;2023-04-24T07:00:36;8.30;89.70
79439;DHT22;68889;48.232;10.110;2023-04-24T07:03:01;8.40;90.60
79439;DHT22;68889;48.232;10.110;2023-04-24T07:05:27;8.40;89.70
79439;DHT22;68889;48.232;10.110;2023-04-24T07:07:53;8.40;89.20
79439;DHT22;68889;48.232;10.110;2023-04-24T07:10:19;8.40;88.00
79439;DHT22;68889;48.232;10.110;2023-04-24T07:12:45;8.40;88.00
79439;DHT22;68889;48.232;10.110;2023-04-24T07:15:12;8.40;89.20
79439;DHT22;68889;48.232;10.110;2023-04-24T07:17:37;8.40;88.50
79439;DHT22;68889;48.232;10.110;2023-04-24T07:20:04;8.40;88.40
79439;DHT22;68889;48.232;10.110;2023-04-24T07:22:30;8.40;89.00
79439;DHT22;68889;48.232;10.110;2023-04-24T07:24:56;8.40;88.50
79439;DHT22;68889;48.232;10.110;2023-04-24T07:27:22;8.50;88.90
79439;DHT22;68889;48.232;10.110;2023-04-24T07:29:47;8.60;88.50
79439;DHT22;68889;48.232;10.110;2023-04-24T07:32:13;8.60;87.10
79439;DHT22;68889;48.232;10.110;2023-04-24T07:34:39;8.70;88.20
79439;DHT22;68889;48.232;10.110;2023-04-24T07:37:04;8.70;88.90
79439;DHT22;68889;48.232;10.110;2023-04-24T07:39:30;8.80;87.50
79439;DHT22;68889;48.232;10.110;2023-04-24T07:41:56;8.80;87.50
79439;DHT22;68889;48.232;10.110;2023-04-24T07:44:22;9.00;89.70
79439;DHT22;68889;48.232;10.110;2023-04-24T07:46:47;9.10;88.40
79439;DHT22;68889;48.232;10.110;2023-04-24T07:49:13;9.20;87.20
79439;DHT22;68889;48.232;10.110;2023-04-24T07:51:39;9.30;86.00
79439;DHT22;68889;48.232;10.110;2023-04-24T07:54:05;9.40;87.60
79439;DHT22;68889;48.232;10.110;2023-04-24T07:56:33;9.60;87.50
79439;DHT22;68889;48.232;10.110;2023-04-24T07:59:00;9.80;85.40
79439;DHT22;68889;48.232;10.110;2023-04-24T08:01:26;10.00;85.80
79439;DHT22;68889;48.232;10.110;2023-04-24T08:03:52;10.20;84.40
79439;DHT22;68889;48.232;10.110;2023-04-24T08:06:17;10.20;80.80
79439;DHT22;68889;48.232;10.110;2023-04-24T08:08:43;10.40;84.60
79439;DHT22;68889;48.232;10.110;2023-04-24T08:11:09;10.60;82.00
79439;DHT22;68889;48.232;10.110;2023-04-24T08:13:34;10.70;81.80
79439;DHT22;68889;48.232;10.110;2023-04-24T08:16:00;10.70;81.60
79439;DHT22;68889;48.232;10.110;2023-04-24T08:18:26;10.70;79.40
79439;DHT22;68889;48.232;10.110;2023-04-24T08:20:51;10.80;81.20
79439;DHT22;68889;48.232;10.110;2023-04-24T08:23:17;10.90;80.40
79439;DHT22;68889;48.232;10.110;2023-04-24T08:25:42;11.30;83.30
79439;DHT22;68889;48.232;10.110;2023-04-24T08:28:09;11.70;82.10
79439;DHT22;68889;48.232;10.110;2023-04-24T08:30:36;11.70;78.60
79439;DHT22;68889;48.232;10.110;2023-04-24T08:33:02;11.90;79.00
79439;DHT22;68889;48.232;10.110;2023-04-24T08:35:27;11.80;81.00
79439;DHT22;68889;48.232;10.110;2023-04-24T08:37:53;11.70;78.10
79439;DHT22;68889;48.232;10.110;2023-04-24T08:40:22;11.50;79.20
79439;DHT22;68889;48.232;10.110;2023-04-24T08:42:49;11.30;79.90
79439;DHT22;68889;48.232;10.110;2023-04-24T08:45:17;11.30;80.10
79439;DHT22;68889;48.232;10.110;2023-04-24T08:47:42;11.40;79.60
79439;DHT22;68889;48.232;10.110;2023-04-24T08:50:11;11.40;79.60
79439;DHT22;68889;48.232;10.110;2023-04-24T08:52:37;11.40;79.40
79439;DHT22;68889;48.232;10.110;2023-04-24T08:55:05;11.40;80.00
79439;DHT22;68889;48.232;10.110;2023-04-24T08:57:31;11.40;78.60
79439;DHT22;68889;48.232;10.110;2023-04-24T08:59:58;11.50;78.00
79439;DHT22;68889;48.232;10.110;2023-04-24T09:02:25;11.50;78.40
79439;DHT22;68889;48.232;10.110;2023-04-24T09:04:52;11.50;75.60
79439;DHT22;68889;48.232;10.110;2023-04-24T09:07:18;11.20;75.80
79439;DHT22;68889;48.232;10.110;2023-04-24T09:09:44;11.00;75.60
79439;DHT22;68889;48.232;10.110;2023-04-24T09:12:11;10.90;76.30
79439;DHT22;68889;48.232;10.110;2023-04-24T09:14:37;11.20;76.80
79439;DHT22;68889;48.232;10.110;2023-04-24T09:17:07;11.70;77.20
79439;DHT22;68889;48.232;10.110;2023-04-24T09:19:33;11.90;75.80
79439;DHT22;68889;48.232;10.110;2023-04-24T09:21:58;11.60;73.90
79439;DHT22;68889;48.232;10.110;2023-04-24T09:24:24;11.30;76.50
79439;DHT22;68889;48.232;10.110;2023-04-24T09:26:57;11.00;74.60
79439;DHT22;68889;48.232;10.110;2023-04-24T09:29:23;10.60;78.70
79439;DHT22;68889;48.232;10.110;2023-04-24T09:31:49;10.40;81.90
79439;DHT22;68889;48.232;10.110;2023-04-24T09:34:19;10.10;81.40
79439;DHT22;68889;48.232;10.110;2023-04-24T09:36:46;10.00;84.20
79439;DHT22;68889;48.232;10.110;2023-04-24T09:39:13;9.90;86.40
79439;DHT22;68889;48.232;10.110;2023-04-24T09:44:14;10.10;85.70
79439;DHT22;68889;48.232;10.110;2023-04-24T09:46:41;10.10;85.50
79439;DHT22;68889;48.232;10.110;2023-04-24T09:49:09;10.30;85.90
79439;DHT22;68889;48.232;10.110;2023-04-24T09:51:37;10.60;85.30
79439;DHT22;68889;48.232;10.110;2023-04-24T09:54:04;10.90;81.40
79439;DHT22;68889;48.232;10.110;2023-04-24T09:56:32;11.10;86.50
79439;DHT22;68889;48.232;10.110;2023-04-24T09:59:06;11.50;81.90
79439;DHT22;68889;48.232;10.110;2023-04-24T10:01:32;12.00;82.50
79439;DHT22;68889;48.232;10.110;2023-04-24T10:03:58;12.20;78.30
79439;DHT22;68889;48.232;10.110;2023-04-24T10:06:31;12.00;79.90
79439;DHT22;68889;48.232;10.110;2023-04-24T10:08:57;12.20;84.80
79439;DHT22;68889;48.232;10.110;2023-04-24T10:11:26;12.60;80.40
79439;DHT22;68889;48.232;10.110;2023-04-24T10:13:52;12.80;79.60
79439;DHT22;68889;48.232;10.110;2023-04-24T10:16:19;12.60;73.90
79439;DHT22;68889;48.232;10.110;2023-04-24T10:18:48;12.20;70.10
79439;DHT22;68889;48.232;10.110;2023-04-24T10:21:14;12.20;69.00
79439;DHT22;68889;48.232;10.110;2023-04-24T10:23:41;12.20;68.80
79439;DHT22;68889;48.232;10.110;2023-04-24T10:26:09;12.20;71.00
79439;DHT22;68889;48.232;10.110;2023-04-24T10:28:36;12.70;70.10
79439;DHT22;68889;48.232;10.110;2023-04-24T10:31:02;12.90;69.90
79439;DHT22;68889;48.232;10.110;2023-04-24T10:33:29;13.10;68.70
79439;DHT22;68889;48.232;10.110;2023-04-24T10:35:55;13.40;71.70
79439;DHT22;68889;48.232;10.110;2023-04-24T10:38:25;13.70;67.50
79439;DHT22;68889;48.232;10.110;2023-04-24T10:41:06;13.80;69.80
79439;DHT22;68889;48.232;10.110;2023-04-24T10:43:33;14.00;68.00
79439;DHT22;68889;48.232;10.110;2023-04-24T10:46:03;14.20;69.00
79439;DHT22;68889;48.232;10.110;2023-04-24T10:48:29;14.40;66.30
79439;DHT22;68889;48.232;10.110;2023-04-24T10:50:55;14.50;62.80
79439;DHT22;68889;48.232;10.110;2023-04-24T10:53:22;14.30;64.90
79439;DHT22;68889;48.232;10.110;2023-04-24T10:56:18;14.30;61.70
79439;DHT22;68889;48.232;10.110;2023-04-24T10:58:51;14.10;61.40
79439;DHT22;68889;48.232;10.110;2023-04-24T11:01:30;13.90;69.10
79439;DHT22;68889;48.232;10.110;2023-04-24T11:04:01;13.90;66.60
79439;DHT22;68889;48.232;10.110;2023-04-24T11:06:35;13.70;63.10
79439;DHT22;68889;48.232;10.110;2023-04-24T11:09:09;13.40;64.00
79439;DHT22;68889;48.232;10.110;2023-04-24T11:11:36;13.60;69.00
79439;DHT22;68889;48.232;10.110;2023-04-24T11:14:08;14.00;69.00
79439;DHT22;68889;48.232;10.110;2023-04-24T11:16:42;14.60;64.30
79439;DHT22;68889;48.232;10.110;2023-04-24T11:27:09;15.30;60.10
79439;DHT22;68889;48.232;10.110;2023-04-24T11:29:40;15.00;55.60
79439;DHT22;68889;48.232;10.110;2023-04-24T11:32:24;15.00;57.40
79439;DHT22;68889;48.232;10.110;2023-04-24T11:34:52;15.00;55.80
79439;DHT22;68889;48.232;10.110;2023-04-24T11:37:18;15.30;56.30
79439;DHT22;68889;48.232;10.110;2023-04-24T11:39:44;15.00;54.40
79439;DHT22;68889;48.232;10.110;2023-04-24T11:42:10;14.90;56.30
79439;DHT22;68889;48.232;10.110;2023-04-24T11:44:35;15.20;57.20
79439;DHT22;68889;48.232;10.110;2023-04-24T11:47:08;15.50;56.80
79439;DHT22;68889;48.232;10.110;2023-04-24T11:49:36;15.90;55.70
79439;DHT22;68889;48.232;10.110;2023-04-24T11:52:02;16.20;56.20
79439;DHT22;68889;48.232;10.110;2023-04-24T11:54:27;15.90;51.60
79439;DHT22;68889;48.232;10.110;2023-04-24T11:56:53;15.50;54.30
79439;DHT22;68889;48.232;10.110;2023-04-24T11:59:19;15.10;54.90
79439;DHT22;68889;48.232;10.110;2023-04-24T12:01:48;15.00;56.10
79439;DHT22;68889;48.232;10.110;2023-04-24T12:04:14;15.10;62.30
79439;DHT22;68889;48.232;10.110;2023-04-24T12:06:58;14.90;61.00
79439;DHT22;68889;48.232;10.110;2023-04-24T12:09:24;15.00;62.50
79439;DHT22;68889;48.232;10.110;2023-04-24T12:11:56;14.60;59.90
79439;DHT22;68889;48.232;10.110;2023-04-24T12:14:26;14.50;62.10
79439;DHT22;68889;48.232;10.110;2023-04-24T12:16:52;14.50;64.40
79439;DHT22;68889;48.232;10.110;2023-04-24T12:19:22;14.30;59.80
79439;DHT22;68889;48.232;10.110;2023-04-24T12:22:01;14.10;61.90
79439;DHT22;68889;48.232;10.110;2023-04-24T12:24:27;14.00;62.80
79439;DHT22;68889;48.232;10.110;2023-04-24T12:26:53;14.00;60.30
79439;DHT22;68889;48.232;10.110;2023-04-24T12:29:22;14.00;61.40
79439;DHT22;68889;48.232;10.110;2023-04-24T12:31:48;14.10;61.80
79439;DHT22;68889;48.232;10.110;2023-04-24T12:34:21;14.10;61.30
79439;DHT22;68889;48.232;10.110;2023-04-24T12:36:47;14.40;60.30
79439;DHT22;68889;48.232;10.110;2023-04-24T12:39:19;14.70;62.50
79439;DHT22;68889;48.232;10.110;2023-04-24T12:41:56;15.00;57.50
79439;DHT22;68889;48.232;10.110;2023-04-24T12:44:47;14.90;59.20
79439;DHT22;68889;48.232;10.110;2023-04-24T12:47:12;14.60;57.90
79439;DHT22;68889;48.232;10.110;2023-04-24T12:49:38;14.30;60.70
79439;DHT22;68889;48.232;10.110;2023-04-24T12:52:04;14.20;59.50
79439;DHT22;68889;48.232;10.110;2023-04-24T12:54:32;14.00;59.40
79439;DHT22;68889;48.232;10.110;2023-04-24T12:56:58;14.20;60.90
79439;DHT22;68889;48.232;10.110;2023-04-24T12:59:24;14.50;58.00
79439;DHT22;68889;48.232;10.110;2023-04-24T13:01:50;14.60;57.10
79439;DHT22;68889;48.232;10.110;2023-04-24T13:04:16;14.50;56.90
79439;DHT22;68889;48.232;10.110;2023-04-24T13:06:42;14.20;56.60
79439;DHT22;68889;48.232;10.110;2023-04-24T13:09:07;14.30;59.10
79439;DHT22;68889;48.232;10.110;2023-04-24T13:11:33;14.20;55.40
79439;DHT22;68889;48.232;10.110;2023-04-24T13:13:58;13.90;56.00
79439;DHT22;68889;48.232;10.110;2023-04-24T13:16:24;13.60;57.10
79439;DHT22;68889;48.232;10.110;2023-04-24T13:18:49;13.40;55.60
79439;DHT22;68889;48.232;10.110;2023-04-24T13:21:15;13.40;58.00
79439;DHT22;68889;48.232;10.110;2023-04-24T13:23:41;13.50;58.20
79439;DHT22;68889;48.232;10.110;2023-04-24T13:26:06;13.50;56.90
79439;DHT22;68889;48.232;10.110;2023-04-24T13:28:32;13.50;58.40
79439;DHT22;68889;48.232;10.110;2023-04-24T13:30:58;13.90;59.80
79439;DHT22;68889;48.232;10.110;2023-04-24T13:33:24;14.30;57.20
79439;DHT22;68889;48.232;10.110;2023-04-24T13:35:50;14.50;53.30
79439;DHT22;68889;48.232;10.110;2023-04-24T13:38:15;14.30;52.70
79439;DHT22;68889;48.232;10.110;2023-04-24T13:40:41;14.30;54.90
79439;DHT22;68889;48.232;10.110;2023-04-24T13:43:06;14.50;53.50
79439;DHT22;68889;48.232;10.110;2023-04-24T13:45:32;14.30;54.50
79439;DHT22;68889;48.232;10.110;2023-04-24T13:47:57;14.30;53.60
79439;DHT22;68889;48.232;10.110;2023-04-24T13:50:23;13.90;52.40
79439;DHT22;68889;48.232;10.110;2023-04-24T13:52:48;14.10;53.50
79439;DHT22;68889;48.232;10.110;2023-04-24T13:55:14;14.30;55.10
79439;DHT22;68889;48.232;10.110;2023-04-24T13:57:40;14.30;54.10
79439;DHT22;68889;48.232;10.110;2023-04-24T14:00:06;14.40;57.10
79439;DHT22;68889;48.232;10.110;2023-04-24T14:02:35;14.30;54.50
79439;DHT22;68889;48.232;10.110;2023-04-24T14:05:01;14.60;54.50
79439;DHT22;68889;48.232;10.110;2023-04-24T14:07:28;14.90;51.90
79439;DHT22;68889;48.232;10.110;2023-04-24T14:09:54;15.10;52.90
79439;DHT22;68889;48.232;10.110;2023-04-24T14:12:20;15.10;53.70
79439;DHT22;68889;48.232;10.110;2023-04-24T14:14:46;14.70;53.20
79439;DHT22;68889;48.232;10.110;2023-04-24T14:17:13;14.30;52.70
79439;DHT22;68889;48.232;10.110;2023-04-24T14:19:39;14.00;52.80
79439;DHT22;68889;48.232;10.110;2023-04-24T14:22:05;13.80;54.60
79439;DHT22;68889;48.232;10.110;2023-04-24T14:24:30;13.90;56.10
79439;DHT22;68889;48.232;10.110;2023-04-24T14:26:56;14.00;54.60
79439;DHT22;68889;48.232;10.110;2023-04-24T14:29:22;13.90;54.20
79439;DHT22;68889;48.232;10.110;2023-04-24T14:31:48;13.90;56.90
79439;DHT22;68889;48.232;10.110;2023-04-24T14:34:13;14.60;55.20
79439;DHT22;68889;48.232;10.110;2023-04-24T14:36:39;15.50;53.90
79439;DHT22;68889;48.232;10.110;2023-04-24T14:39:05;15.80;54.30
79439;DHT22;68889;48.232;10.110;2023-04-24T14:41:32;16.30;55.10
79439;DHT22;68889;48.232;10.110;2023-04-24T14:44:01;16.20;50.00
79439;DHT22;68889;48.232;10.110;2023-04-24T14:46:27;15.30;51.30
79439;DHT22;68889;48.232;10.110;2023-04-24T14:48:53;14.90;52.00
79439;DHT22;68889;48.232;10.110;2023-04-24T14:51:18;14.40;50.60
79439;DHT22;68889;48.232;10.110;2023-04-24T14:53:44;13.90;52.40
79439;DHT22;68889;48.232;10.110;2023-04-24T14:56:12;13.50;51.40
79439;DHT22;68889;48.232;10.110;2023-04-24T14:58:37;13.30;51.90
79439;DHT22;68889;48.232;10.110;2023-04-24T15:01:03;13.20;54.00
79439;DHT22;68889;48.232;10.110;2023-04-24T15:03:28;13.30;54.20
79439;DHT22;68889;48.232;10.110;2023-04-24T15:05:54;13.40;58.00
79439;DHT22;68889;48.232;10.110;2023-04-24T15:08:20;13.60;55.60
79439;DHT22;68889;48.232;10.110;2023-04-24T15:10:46;13.90;58.30
79439;DHT22;68889;48.232;10.110;2023-04-24T15:13:12;13.80;54.50
79439;DHT22;68889;48.232;10.110;2023-04-24T15:15:37;13.80;55.30
79439;DHT22;68889;48.232;10.110;2023-04-24T15:18:04;13.90;54.40
79439;DHT22;68889;48.232;10.110;2023-04-24T15:20:30;14.00;54.30
79439;DHT22;68889;48.232;10.110;2023-04-24T15:22:56;13.90;54.40
79439;DHT22;68889;48.232;10.110;2023-04-24T15:25:24;13.50;54.10
79439;DHT22;68889;48.232;10.110;2023-04-24T15:27:49;13.40;53.50
79439;DHT22;68889;48.232;10.110;2023-04-24T15:30:15;13.40;54.30